Time;durP1;ratioP1;P1;durP2;ratioP2;P2;SDS_P1;SDS_P2;PMS_P1;PMS_P2;Temp;Humidity;BMP_temperature;BMP_pressure;BME280_temperature;BME280_humidity;BME280_pressure;Samples;Min_cycle;Max_cycle;Signal;HPM_P1;HPM_P2
2021/12/11 00:00:15;;;;;;;1.73;1.63;;;8.00;99.90;;;;;;5015365;28;20485;-50
2021/12/11 00:02:43;;;;;;;1.80;1.70;;;8.10;99.90;;;;;;5015206;28;20554;-50
2021/12/11 00:05:13;;;;;;;1.97;1.87;;;7.90;99.90;;;;;;5014044;28;20455;-50
2021/12/11 00:07:40;;;;;;;2.23;1.83;;;7.50;99.90;;;;;;5015290;28;20451;-50
2021/12/11 00:10:14;;;;;;;2.17;1.97;;;7.50;99.90;;;;;;5013921;28;20487;-50
2021/12/11 00:12:47;;;;;;;1.60;1.50;;;8.20;99.90;;;;;;5015377;28;20458;-50
2021/12/11 00:15:18;;;;;;;2.13;1.70;;;8.00;99.90;;;;;;5015511;28;20518;-50
2021/12/11 00:17:46;;;;;;;2.30;1.80;;;7.60;99.90;;;;;;5015005;28;20525;-50
2021/12/11 00:20:20;;;;;;;2.57;1.90;;;7.20;99.90;;;;;;5015259;28;20473;-50
2021/12/11 00:22:47;;;;;;;2.17;2.07;;;7.00;99.90;;;;;;5015359;28;20793;-50
2021/12/11 00:25:18;;;;;;;1.77;1.67;;;6.60;99.90;;;;;;5014959;28;20461;-50
2021/12/11 00:27:48;;;;;;;2.13;1.77;;;6.40;99.90;;;;;;5015432;28;20439;-50
2021/12/11 00:30:23;;;;;;;2.20;2.00;;;6.70;99.90;;;;;;5014871;28;20477;-50
2021/12/11 00:32:50;;;;;;;1.63;1.53;;;;;;;;;;5014963;28;20451;-50
2021/12/11 00:35:20;;;;;;;2.23;1.60;;;6.30;99.90;;;;;;5015015;28;20443;-49
2021/12/11 00:37:48;;;;;;;2.83;1.70;;;6.60;99.90;;;;;;5014885;28;21041;-49
2021/12/11 00:40:21;;;;;;;3.20;2.73;;;5.90;99.90;;;;;;5014809;28;20846;-49
2021/12/11 00:42:50;;;;;;;2.50;2.40;;;6.00;99.90;;;;;;5014646;28;20446;-49
2021/12/11 00:45:20;;;;;;;2.13;1.97;;;5.90;99.90;;;;;;5014554;28;20467;-49
2021/12/11 00:47:52;;;;;;;4.03;2.00;;;5.90;99.90;;;;;;5014636;28;20925;-50
2021/12/11 00:50:22;;;;;;;1.90;1.80;;;6.00;99.90;;;;;;5014611;28;20467;-49
2021/12/11 00:52:52;;;;;;;1.80;1.70;;;6.30;99.90;;;;;;5014726;28;20507;-49
2021/12/11 00:55:27;;;;;;;2.10;1.90;;;5.80;99.90;;;;;;5015087;28;20431;-51
2021/12/11 00:58:10;;;;;;;1.97;1.77;;;6.50;99.90;;;;;;5014935;28;20493;-51
2021/12/11 01:00:42;;;;;;;2.20;2.00;;;6.20;99.90;;;;;;5014413;28;20467;-50
2021/12/11 01:03:09;;;;;;;1.80;1.70;;;5.80;99.90;;;;;;5014208;28;20436;-51
2021/12/11 01:05:40;;;;;;;1.83;1.73;;;5.70;99.90;;;;;;5014428;28;20886;-50
2021/12/11 01:08:23;;;;;;;2.03;1.90;;;6.00;99.90;;;;;;5014179;28;20538;-50
2021/12/11 01:10:55;;;;;;;3.30;2.00;;;6.00;99.90;;;;;;5013770;28;20514;-50
2021/12/11 01:13:26;;;;;;;2.27;2.07;;;6.30;99.90;;;;;;5014470;28;20450;-50
2021/12/11 01:16:01;;;;;;;2.80;1.90;;;6.30;99.90;;;;;;5013581;28;20436;-51
2021/12/11 01:18:36;;;;;;;1.77;1.67;;;6.00;99.90;;;;;;5013842;28;20493;-50
2021/12/11 01:21:15;;;;;;;1.70;1.60;;;5.80;99.90;;;;;;5014223;28;20467;-50
2021/12/11 01:24:07;;;;;;;1.73;1.63;;;6.20;99.90;;;;;;5014262;28;20438;-51
2021/12/11 01:26:38;;;;;;;1.70;1.60;;;6.80;99.90;;;;;;5014119;28;20462;-50
2021/12/11 01:29:06;;;;;;;1.60;1.40;;;6.80;99.90;;;;;;5014212;28;20462;-51
2021/12/11 01:31:34;;;;;;;1.60;1.47;;;6.60;99.90;;;;;;5013975;28;20467;-51
2021/12/11 01:34:02;;;;;;;1.97;1.70;;;6.10;99.90;;;;;;5013764;28;20550;-50
2021/12/11 01:36:30;;;;;;;1.60;1.50;;;6.00;99.90;;;;;;5013731;28;20996;-51
2021/12/11 01:38:58;;;;;;;1.50;1.40;;;5.90;99.90;;;;;;5013485;28;20582;-51
2021/12/11 01:41:26;;;;;;;1.60;1.50;;;5.80;99.90;;;;;;5013472;28;21008;-51
2021/12/11 01:43:58;;;;;;;1.90;1.70;;;5.60;99.90;;;;;;5013949;28;20538;-50
2021/12/11 01:46:27;;;;;;;1.60;1.50;;;5.40;99.90;;;;;;5013701;28;20869;-50
2021/12/11 01:49:04;;;;;;;1.40;1.30;;;5.30;99.90;;;;;;5013526;28;20467;-51
2021/12/11 01:51:34;;;;;;;1.50;1.40;;;5.90;99.90;;;;;;5013686;28;20469;-51
2021/12/11 01:54:11;;;;;;;1.30;1.20;;;5.90;99.90;;;;;;5013864;28;20427;-50
2021/12/11 01:56:41;;;;;;;1.30;1.20;;;4.90;99.90;;;;;;5013692;28;20460;-50
2021/12/11 01:59:13;;;;;;;2.80;1.47;;;4.70;99.90;;;;;;5013169;28;20493;-51
2021/12/11 02:01:45;;;;;;;1.30;1.20;;;5.40;99.90;;;;;;5013314;28;20952;-50
2021/12/11 02:04:15;;;;;;;1.40;1.30;;;5.00;99.90;;;;;;5013622;28;20455;-51
2021/12/11 02:06:45;;;;;;;1.50;1.40;;;4.70;99.90;;;;;;5013384;28;20530;-51
2021/12/11 02:09:16;;;;;;;1.50;1.40;;;4.70;99.90;;;;;;5013488;28;20450;-51
2021/12/11 02:11:46;;;;;;;1.43;1.33;;;4.70;99.90;;;;;;5013013;28;20558;-51
2021/12/11 02:14:20;;;;;;;1.43;1.33;;;4.80;99.90;;;;;;5013468;28;20545;-51
2021/12/11 02:16:49;;;;;;;1.50;1.40;;;4.80;99.90;;;;;;5013570;28;20442;-51
2021/12/11 02:19:23;;;;;;;1.53;1.43;;;4.60;99.90;;;;;;5013219;28;20482;-50
2021/12/11 02:21:56;;;;;;;1.33;1.23;;;4.50;99.90;;;;;;5013188;28;20435;-51
2021/12/11 02:24:25;;;;;;;3.53;1.20;;;4.90;99.90;;;;;;5013380;28;20440;-51
2021/12/11 02:26:55;;;;;;;1.20;1.10;;;4.20;99.90;;;;;;5012359;28;20482;-50
2021/12/11 02:29:28;;;;;;;1.53;1.30;;;4.10;99.90;;;;;;5013163;28;20469;-50
2021/12/11 02:31:59;;;;;;;1.40;1.30;;;3.90;99.90;;;;;;5012946;28;20435;-51
2021/12/11 02:34:29;;;;;;;1.40;1.30;;;4.30;99.90;;;;;;5013322;28;20767;-51
2021/12/11 02:37:01;;;;;;;1.43;1.30;;;4.20;99.90;;;;;;5013007;28;20453;-50
2021/12/11 02:39:31;;;;;;;2.80;1.33;;;4.20;99.90;;;;;;5012770;28;20493;-50
2021/12/11 02:42:02;;;;;;;1.47;1.37;;;4.00;99.90;;;;;;5013181;28;20534;-50
2021/12/11 02:44:33;;;;;;;1.33;1.23;;;4.20;99.90;;;;;;5012842;28;20431;-51
2021/12/11 02:47:03;;;;;;;1.80;1.30;;;4.00;99.90;;;;;;5012944;28;20873;-51
2021/12/11 02:49:33;;;;;;;1.50;1.40;;;4.20;99.90;;;;;;5013086;28;20450;-51
2021/12/11 02:52:08;;;;;;;1.50;1.40;;;4.20;99.90;;;;;;5012785;28;20447;-51
2021/12/11 02:54:39;;;;;;;1.47;1.37;;;4.90;99.90;;;;;;5012818;28;20438;-51
2021/12/11 02:57:13;;;;;;;1.70;1.60;;;5.50;99.90;;;;;;5013202;28;20526;-50
2021/12/11 02:59:44;;;;;;;1.77;1.67;;;5.40;99.90;;;;;;5012898;28;20584;-50
2021/12/11 03:02:15;;;;;;;1.67;1.57;;;5.20;99.90;;;;;;5013105;28;20474;-50
2021/12/11 03:04:49;;;;;;;1.93;1.50;;;4.90;99.90;;;;;;5012958;28;20436;-51
2021/12/11 03:07:21;;;;;;;1.67;1.57;;;4.70;99.90;;;;;;5012724;28;20436;-51
2021/12/11 03:09:50;;;;;;;1.60;1.50;;;4.40;99.90;;;;;;5013026;28;20566;-51
2021/12/11 03:12:19;;;;;;;1.60;1.50;;;4.30;99.90;;;;;;5012746;28;20424;-50
2021/12/11 03:14:48;;;;;;;1.53;1.43;;;4.50;99.90;;;;;;5012578;28;20545;-50
2021/12/11 03:17:17;;;;;;;1.50;1.40;;;4.80;99.90;;;;;;5012815;28;20455;-50
2021/12/11 03:19:46;;;;;;;1.63;1.20;;;5.00;99.90;;;;;;5012569;28;20493;-50
2021/12/11 03:22:18;;;;;;;1.40;1.30;;;5.10;99.90;;;;;;5012728;28;20447;-51
2021/12/11 03:24:47;;;;;;;1.97;1.60;;;4.70;99.90;;;;;;5012979;28;20891;-51
2021/12/11 03:27:15;;;;;;;1.40;1.30;;;4.70;99.90;;;;;;5012855;28;20473;-51
2021/12/11 03:29:43;;;;;;;1.97;1.87;;;4.50;99.90;;;;;;5012493;28;20669;-51
2021/12/11 03:32:12;;;;;;;1.47;1.37;;;4.60;99.90;;;;;;5012695;28;20447;-50
2021/12/11 03:34:40;;;;;;;1.67;1.40;;;4.70;99.90;;;;;;5012462;28;20458;-50
2021/12/11 03:37:09;;;;;;;1.60;1.50;;;4.90;99.90;;;;;;5012709;28;20446;-50
2021/12/11 03:39:39;;;;;;;1.63;1.53;;;4.50;99.90;;;;;;5015587;28;20493;-50
2021/12/11 03:42:11;;;;;;;1.50;1.40;;;4.50;99.90;;;;;;5015902;28;20462;-51
2021/12/11 03:44:39;;;;;;;1.87;1.67;;;4.50;99.90;;;;;;5015919;28;20822;-50
2021/12/11 03:47:10;;;;;;;1.70;1.60;;;4.60;99.90;;;;;;5015971;28;20453;-50
2021/12/11 03:49:37;;;;;;;1.67;1.57;;;4.80;99.90;;;;;;5015641;28;20466;-50
2021/12/11 03:52:07;;;;;;;1.80;1.70;;;5.30;99.90;;;;;;5015643;28;20808;-50
2021/12/11 03:54:37;;;;;;;1.80;1.70;;;5.50;99.90;;;;;;5015866;28;20454;-51
2021/12/11 03:57:09;;;;;;;1.60;1.50;;;5.10;99.90;;;;;;5015660;28;20962;-51
2021/12/11 03:59:36;;;;;;;1.70;1.60;;;4.90;99.90;;;;;;5015383;28;20486;-50
2021/12/11 04:02:08;;;;;;;1.80;1.70;;;4.80;99.90;;;;;;5015890;28;20533;-51
2021/12/11 04:04:40;;;;;;;1.80;1.70;;;4.70;99.90;;;;;;5015835;28;20514;-51
2021/12/11 04:07:11;;;;;;;1.90;1.80;;;4.60;99.90;;;;;;5015270;28;20775;-50
2021/12/11 04:09:40;;;;;;;1.90;1.80;;;4.80;99.90;;;;;;5015382;28;20490;-51
2021/12/11 04:12:09;;;;;;;2.20;2.10;;;4.80;99.90;;;;;;5016078;28;20442;-51
2021/12/11 04:14:41;;;;;;;1.70;1.60;;;4.60;99.90;;;;;;5015382;28;20454;-51
2021/12/11 04:17:11;;;;;;;2.10;1.90;;;4.80;99.90;;;;;;5015179;28;20894;-51
2021/12/11 04:19:40;;;;;;;2.10;1.90;;;4.90;99.90;;;;;;5015496;28;20499;-51
2021/12/11 04:22:08;;;;;;;2.13;1.97;;;5.10;99.90;;;;;;5015003;28;20454;-50
2021/12/11 04:24:38;;;;;;;2.40;2.30;;;5.10;99.90;;;;;;5015299;28;20451;-51
2021/12/11 04:27:09;;;;;;;1.83;1.73;;;5.30;99.90;;;;;;5015398;28;20458;-51
2021/12/11 04:29:37;;;;;;;1.90;1.80;;;5.00;99.90;;;;;;5015252;28;20463;-49
2021/12/11 04:32:06;;;;;;;2.03;1.93;;;5.10;99.90;;;;;;5014879;28;20450;-51
2021/12/11 04:34:34;;;;;;;2.30;2.20;;;5.00;99.90;;;;;;5015129;28;20451;-49
2021/12/11 04:37:10;;;;;;;2.30;2.10;;;5.10;99.90;;;;;;5015147;28;20447;-51
2021/12/11 04:39:39;;;;;;;2.23;2.13;;;4.80;99.90;;;;;;5014862;28;20493;-51
2021/12/11 04:42:17;;;;;;;2.00;1.90;;;4.80;99.90;;;;;;5014965;28;20455;-49
2021/12/11 04:44:47;;;;;;;2.20;2.10;;;4.70;99.90;;;;;;5014634;28;20907;-50
2021/12/11 04:47:27;;;;;;;2.40;2.20;;;4.60;99.90;;;;;;5014645;28;20458;-49
2021/12/11 04:49:59;;;;;;;2.10;2.00;;;4.80;99.90;;;;;;5014179;28;20471;-50
2021/12/11 04:52:33;;;;;;;2.20;2.10;;;4.60;99.90;;;;;;5014528;28;20432;-49
2021/12/11 04:55:16;;;;;;;2.60;2.40;;;4.60;99.90;;;;;;5014811;28;20435;-49
2021/12/11 05:00:47;;;;;;;2.70;2.50;;;5.20;99.90;;;;;;5014226;28;20479;-50
2021/12/11 05:03:44;;;;;;;2.50;2.30;;;5.10;99.90;;;;;;5014352;28;20435;-49
2021/12/11 05:06:26;;;;;;;2.60;2.33;;;5.40;99.90;;;;;;5014154;28;20436;-49
2021/12/11 05:11:42;;;;;;;2.80;2.30;;;5.60;99.90;;;;;;5014090;28;20553;-49
2021/12/11 05:14:14;;;;;;;2.77;2.57;;;5.20;99.90;;;;;;5014239;28;20431;-49
2021/12/11 05:16:42;;;;;;;2.90;2.70;;;4.90;99.90;;;;;;5014519;28;20428;-49
2021/12/11 05:19:10;;;;;;;2.63;2.53;;;4.90;99.90;;;;;;5014283;28;20486;-49
2021/12/11 05:21:38;;;;;;;3.20;2.90;;;5.00;99.90;;;;;;5014177;28;20598;-49
2021/12/11 05:24:07;;;;;;;2.87;2.60;;;4.90;99.90;;;;;;5013952;28;20538;-50
2021/12/11 05:26:35;;;;;;;2.87;2.67;;;5.10;99.90;;;;;;5014243;28;20496;-49
2021/12/11 05:29:03;;;;;;;3.60;3.30;;;4.90;99.90;;;;;;5013886;28;20937;-49
2021/12/11 05:31:31;;;;;;;3.07;2.87;;;5.00;99.90;;;;;;5013619;28;20953;-49
2021/12/11 05:33:59;;;;;;;2.93;2.73;;;4.80;99.90;;;;;;5013960;28;20459;-49
2021/12/11 05:36:31;;;;;;;2.60;2.40;;;4.80;99.90;;;;;;5013901;28;20455;-49
2021/12/11 05:38:58;;;;;;;3.10;2.90;;;4.90;99.90;;;;;;5013843;28;20581;-49
2021/12/11 05:41:26;;;;;;;2.90;2.70;;;4.90;99.90;;;;;;5013421;28;20810;-50
2021/12/11 05:43:55;;;;;;;3.20;3.00;;;4.70;99.90;;;;;;5013903;28;20458;-50
2021/12/11 05:46:22;;;;;;;3.10;2.90;;;4.70;99.90;;;;;;5013772;28;20450;-49
2021/12/11 05:48:54;;;;;;;2.77;2.57;;;4.60;99.90;;;;;;5013512;28;20436;-49
2021/12/11 05:51:23;;;;;;;2.93;2.73;;;5.00;99.90;;;;;;5013461;28;20474;-49
2021/12/11 05:53:53;;;;;;;3.50;3.30;;;5.00;99.90;;;;;;5013640;28;20446;-49
2021/12/11 05:56:21;;;;;;;3.13;2.93;;;4.90;99.90;;;;;;5013846;28;20436;-49
2021/12/11 05:58:56;;;;;;;3.00;2.30;;;5.00;99.90;;;;;;5013246;28;20450;-49
2021/12/11 06:01:32;;;;;;;3.00;2.80;;;4.80;99.90;;;;;;5013444;28;21005;-49
2021/12/11 06:04:07;;;;;;;2.80;2.60;;;4.80;99.90;;;;;;5013803;28;20427;-49
2021/12/11 06:06:35;;;;;;;3.00;2.80;;;4.80;99.90;;;;;;5013317;28;20992;-49
2021/12/11 06:09:02;;;;;;;3.10;2.90;;;4.70;99.90;;;;;;5013440;28;20465;-50
2021/12/11 06:11:29;;;;;;;3.27;3.07;;;4.80;99.90;;;;;;5013110;28;20569;-49
2021/12/11 06:13:56;;;;;;;3.17;2.97;;;4.50;99.90;;;;;;5013092;28;20539;-49
2021/12/11 06:16:24;;;;;;;3.50;3.27;;;4.80;99.90;;;;;;5013333;28;20451;-49
2021/12/11 06:18:51;;;;;;;3.83;3.57;;;4.80;99.90;;;;;;5013309;28;20564;-49
2021/12/11 06:21:20;;;;;;;3.70;3.40;;;4.50;99.90;;;;;;5013063;28;20489;-49
2021/12/11 06:23:47;;;;;;;3.40;3.10;;;4.70;99.90;;;;;;5013215;28;20451;-49
2021/12/11 06:26:15;;;;;;;4.20;3.90;;;4.90;99.90;;;;;;5013326;28;20451;-49
2021/12/11 06:28:42;;;;;;;3.40;3.20;;;5.00;99.90;;;;;;5013083;28;20771;-49
2021/12/11 06:31:17;;;;;;;4.00;3.70;;;4.80;99.90;;;;;;5012935;28;20553;-49
2021/12/11 06:33:45;;;;;;;3.80;3.60;;;4.90;99.90;;;;;;5013186;28;20492;-50
2021/12/11 06:36:14;;;;;;;4.10;3.80;;;4.90;99.90;;;;;;5013281;28;20477;-49
2021/12/11 06:38:45;;;;;;;5.10;4.70;;;4.90;99.90;;;;;;5012610;28;20461;-49
2021/12/11 06:41:15;;;;;;;4.83;4.43;;;5.30;99.90;;;;;;5012629;28;20961;-49
2021/12/11 06:43:43;;;;;;;4.10;3.80;;;5.20;99.90;;;;;;5012920;28;20454;-49
2021/12/11 06:46:10;;;;;;;5.00;4.60;;;5.20;99.90;;;;;;5013173;28;20497;-50
2021/12/11 06:48:38;;;;;;;4.30;4.00;;;5.20;99.90;;;;;;5012996;28;20455;-49
2021/12/11 06:51:06;;;;;;;4.80;4.40;;;5.20;99.90;;;;;;5012741;28;20566;-49
2021/12/11 06:53:38;;;;;;;4.47;4.17;;;5.00;99.90;;;;;;5012917;28;20978;-49
2021/12/11 06:56:10;;;;;;;5.00;4.60;;;4.70;99.90;;;;;;5013270;28;20466;-49
2021/12/11 06:58:38;;;;;;;4.70;4.30;;;4.80;99.90;;;;;;5013071;28;20415;-51
2021/12/11 07:01:07;;;;;;;4.93;4.53;;;5.40;99.90;;;;;;5013321;28;20537;-51
2021/12/11 07:03:35;;;;;;;6.00;5.20;;;5.10;99.90;;;;;;5013163;28;20946;-49
2021/12/11 07:06:02;;;;;;;6.00;5.10;;;5.30;99.90;;;;;;5013032;28;20465;-49
2021/12/11 07:08:30;;;;;;;4.43;4.13;;;5.20;99.90;;;;;;5012848;28;20546;-49
2021/12/11 07:10:59;;;;;;;5.37;4.93;;;5.00;99.90;;;;;;5012757;28;21007;-49
2021/12/11 07:13:28;;;;;;;4.90;4.20;;;5.10;99.90;;;;;;5014110;28;20567;-49
2021/12/11 07:15:56;;;;;;;6.57;5.60;;;5.00;99.90;;;;;;5016691;28;20454;-50
2021/12/11 07:18:23;;;;;;;4.80;4.40;;;4.90;99.90;;;;;;5016399;28;20451;-50
2021/12/11 07:20:51;;;;;;;6.00;5.50;;;5.10;99.90;;;;;;5016262;28;20493;-49
2021/12/11 07:23:18;;;;;;;6.60;6.00;;;4.60;99.90;;;;;;5016327;28;20446;-49
2021/12/11 07:25:49;;;;;;;5.93;5.43;;;4.60;99.90;;;;;;5016552;28;20473;-50
2021/12/11 07:28:16;;;;;;;6.50;5.90;;;4.80;99.90;;;;;;5016558;28;20431;-49
2021/12/11 07:30:47;;;;;;;5.73;5.27;;;4.90;99.90;;;;;;5016051;28;20828;-49
2021/12/11 07:33:15;;;;;;;6.57;6.00;;;4.70;99.90;;;;;;5015991;28;20438;-49
2021/12/11 07:35:44;;;;;;;6.40;5.80;;;4.90;99.90;;;;;;5016286;28;20446;-49
2021/12/11 07:38:12;;;;;;;6.73;6.13;;;4.90;99.90;;;;;;5015733;28;20813;-49
2021/12/11 07:40:43;;;;;;;6.80;6.20;;;4.80;99.90;;;;;;5016082;28;20517;-49
2021/12/11 07:43:12;;;;;;;7.10;6.40;;;4.70;99.90;;;;;;5016193;28;20419;-50
2021/12/11 07:45:40;;;;;;;8.10;6.90;;;4.50;99.90;;;;;;5015856;28;20934;-49
2021/12/11 07:48:09;;;;;;;6.43;5.93;;;4.40;99.90;;;;;;5016008;28;20447;-49
2021/12/11 07:50:37;;;;;;;6.80;6.10;;;4.60;99.90;;;;;;5015621;28;20475;-49
2021/12/11 07:53:05;;;;;;;8.10;7.37;;;4.50;99.90;;;;;;5015611;28;20451;-50
2021/12/11 07:55:33;;;;;;;8.10;7.30;;;4.50;99.90;;;;;;5015958;28;20534;-50
2021/12/11 07:58:02;;;;;;;7.90;7.17;;;4.90;99.90;;;;;;5015814;28;20450;-50
2021/12/11 08:00:30;;;;;;;7.33;6.47;;;4.70;99.90;;;;;;5015926;28;20499;-49
2021/12/11 08:02:57;;;;;;;7.13;6.50;;;4.60;99.90;;;;;;5015592;28;20542;-49
2021/12/11 08:05:29;;;;;;;8.77;7.90;;;4.70;99.90;;;;;;5015694;28;20447;-49
2021/12/11 08:08:00;;;;;;;7.40;6.70;;;4.80;99.90;;;;;;5015849;28;20427;-50
2021/12/11 08:10:30;;;;;;;8.90;7.97;;;5.30;99.90;;;;;;5015752;28;20561;-49
2021/12/11 08:12:58;;;;;;;7.63;6.93;;;5.20;99.90;;;;;;5015254;28;20530;-50
2021/12/11 08:15:25;;;;;;;7.93;7.23;;;5.10;99.90;;;;;;5015481;28;20451;-49
2021/12/11 08:17:54;;;;;;;10.27;8.63;;;5.60;99.90;;;;;;5015525;28;20455;-49
2021/12/11 08:20:24;;;;;;;8.47;6.47;;;5.60;99.90;;;;;;5014937;28;20545;-48
2021/12/11 08:22:54;;;;;;;7.50;6.80;;;5.40;99.90;;;;;;5014995;28;20997;-49
2021/12/11 08:25:22;;;;;;;7.13;6.53;;;5.20;99.90;;;;;;5013999;28;20576;-49
2021/12/11 08:27:50;;;;;;;7.57;6.97;;;5.40;99.90;;;;;;5015173;28;20466;-50
2021/12/11 08:30:17;;;;;;;8.43;7.47;;;5.30;99.90;;;;;;5014899;28;20467;-49
2021/12/11 08:32:44;;;;;;;7.87;7.17;;;4.80;99.90;;;;;;5015090;28;20447;-54
2021/12/11 08:35:15;;;;;;;10.33;7.63;;;4.50;99.90;;;;;;5014709;28;21005;-50
2021/12/11 08:37:45;;;;;;;8.73;7.93;;;4.20;99.90;;;;;;5014607;28;20575;-49
2021/12/11 08:40:19;;;;;;;8.60;7.70;;;4.30;99.90;;;;;;5014876;28;20567;-49
2021/12/11 08:42:48;;;;;;;11.50;7.73;;;4.20;99.90;;;;;;5008461;28;20919;-50
2021/12/11 08:45:22;;;;;;;6.43;5.83;;;5.30;99.90;;;;;;5012452;28;20534;-49
2021/12/11 08:47:53;;;;;;;7.97;7.17;;;5.80;99.90;;;;;;4994537;28;20542;-50
2021/12/11 08:50:26;;;;;;;9.30;8.33;;;6.10;99.90;;;;;;5004231;28;20808;-49
2021/12/11 08:52:54;;;;;;;8.67;7.90;;;6.60;99.90;;;;;;5009836;28;20998;-49
2021/12/11 08:55:27;;;;;;;10.00;8.10;;;5.40;99.90;;;;;;5013918;28;20482;-49
2021/12/11 08:57:55;;;;;;;8.50;7.70;;;4.90;99.90;;;;;;5003125;28;20462;-51
2021/12/11 09:00:30;;;;;;;9.00;8.10;;;4.50;99.90;;;;;;5009301;28;20488;-51
2021/12/11 09:03:01;;;;;;;9.57;8.60;;;4.10;99.90;;;;;;5004711;28;20454;-52
2021/12/11 09:05:34;;;;;;;11.97;10.13;;;4.00;99.90;;;;;;5011572;28;20817;-53
2021/12/11 09:08:11;;;;;;;9.57;8.60;;;3.90;99.90;;;;;;5007024;28;20454;-51
2021/12/11 09:10:43;;;;;;;10.10;8.20;;;3.90;99.90;;;;;;4998754;28;21008;-52
2021/12/11 09:13:29;;;;;;;8.83;7.67;;;3.90;99.90;;;;;;5006928;28;20443;-49
2021/12/11 09:16:01;;;;;;;11.53;9.03;;;3.90;99.90;;;;;;5007535;28;20878;-52
2021/12/11 09:18:33;;;;;;;8.53;7.70;;;3.80;99.90;;;;;;5011844;28;20749;-53
2021/12/11 09:21:05;;;;;;;13.80;8.83;;;3.70;99.90;;;;;;5010121;28;20483;-49
2021/12/11 09:23:38;;;;;;;9.93;8.93;;;3.70;99.90;;;;;;4995785;28;20473;-56
2021/12/11 09:26:14;;;;;;;9.93;9.03;;;3.80;99.90;;;;;;4995801;28;20521;-47
2021/12/11 09:28:50;;;;;;;8.63;7.73;;;3.70;99.90;;;;;;4996222;28;20442;-48
2021/12/11 09:31:24;;;;;;;7.73;7.07;;;3.50;99.90;;;;;;4997606;28;20466;-51
2021/12/11 09:33:54;;;;;;;11.53;10.23;;;3.70;99.90;;;;;;4996614;28;20814;-55
2021/12/11 09:36:25;;;;;;;13.20;8.90;;;3.60;99.90;;;;;;4994522;28;20459;-48
2021/12/11 09:38:59;;;;;;;11.40;8.67;;;3.60;99.90;;;;;;4993078;28;20463;-49
2021/12/11 09:41:25;;;;;;;10.00;9.00;;;3.70;99.90;;;;;;4994782;28;20495;-48
2021/12/11 09:43:57;;;;;;;10.73;8.63;;;3.80;99.90;;;;;;4996634;28;20490;-50
2021/12/11 09:46:29;;;;;;;10.30;8.03;;;3.80;99.90;;;;;;4994330;28;21010;-50
2021/12/11 09:49:00;;;;;;;7.57;6.73;;;3.80;99.90;;;;;;4996553;28;20491;-55
2021/12/11 09:51:34;;;;;;;9.33;7.83;;;6.20;99.90;;;;;;4987631;28;20462;-54
2021/12/11 09:54:05;;;;;;;6.67;6.07;;;7.70;99.90;;;;;;4989161;28;20450;-58
2021/12/11 09:56:36;;;;;;;7.83;7.03;;;7.70;99.90;;;;;;4994014;28;21001;-54
2021/12/11 09:59:10;;;;;;;6.57;5.97;;;7.00;99.90;;;;;;4993540;28;20458;-55
2021/12/11 10:01:40;;;;;;;7.20;6.40;;;7.40;99.90;;;;;;4988502;28;20491;-52
2021/12/11 10:04:12;;;;;;;7.17;6.47;;;7.70;99.90;;;;;;4994602;28;20963;-56
2021/12/11 10:06:49;;;;;;;8.63;5.70;;;7.10;99.90;;;;;;4990532;28;21117;-55
2021/12/11 10:09:20;;;;;;;7.10;6.40;;;7.80;99.90;;;;;;4983511;28;20470;-54
2021/12/11 10:12:02;;;;;;;6.23;5.37;;;8.70;99.90;;;;;;4993261;28;20632;-52
2021/12/11 10:14:35;;;;;;;8.33;4.33;;;8.20;99.90;;;;;;4995857;28;20450;-56
2021/12/11 10:17:10;;;;;;;6.13;5.53;;;8.20;99.90;;;;;;4996835;28;20450;-54
2021/12/11 10:19:39;;;;;;;6.80;5.73;;;7.90;99.90;;;;;;4998131;28;20482;-52
2021/12/11 10:22:11;;;;;;;6.53;4.93;;;7.30;99.90;;;;;;4999880;28;20485;-56
2021/12/11 10:24:39;;;;;;;6.57;5.93;;;8.30;99.90;;;;;;4989895;28;20447;-56
2021/12/11 10:27:10;;;;;;;9.50;6.60;;;8.70;99.90;;;;;;4989143;28;21871;-56
2021/12/11 10:29:40;;;;;;;5.20;4.60;;;9.50;99.90;;;;;;4980478;28;21076;-55
2021/12/11 10:32:11;;;;;;;6.77;5.60;;;11.00;99.90;;;;;;4980471;28;20869;-58
2021/12/11 10:34:41;;;;;;;6.20;4.80;;;9.70;99.90;;;;;;5013001;28;20460;-53
2021/12/11 10:37:12;;;;;;;7.97;4.90;;;9.30;99.90;;;;;;5013776;28;20461;-55
2021/12/11 10:39:46;;;;;;;4.87;4.17;;;7.90;99.90;;;;;;5009477;28;20518;-49
2021/12/11 10:42:14;;;;;;;7.30;5.07;;;7.60;99.90;;;;;;4976250;28;20474;-58
2021/12/11 10:44:46;;;;;;;4.87;4.13;;;9.50;99.90;;;;;;4980630;28;20455;-53
2021/12/11 10:47:16;;;;;;;6.50;4.00;;;10.50;99.90;;;;;;4993231;28;20489;-51
2021/12/11 10:49:45;;;;;;;5.13;4.70;;;10.20;99.90;;;;;;4995949;28;20554;-56
2021/12/11 10:52:15;;;;;;;6.30;5.67;;;10.20;99.90;;;;;;4998859;28;20445;-56
2021/12/11 10:54:43;;;;;;;5.80;5.20;;;10.60;99.90;;;;;;4996174;28;20463;-55
2021/12/11 10:57:11;;;;;;;4.97;4.47;;;10.40;99.90;;;;;;4996647;28;20469;-56
2021/12/11 10:59:40;;;;;;;5.50;5.00;;;10.40;99.90;;;;;;4993284;28;20551;-59
2021/12/11 11:02:13;;;;;;;4.90;4.50;;;8.20;99.90;;;;;;4996808;28;20997;-59
2021/12/11 11:04:43;;;;;;;6.50;5.13;;;8.40;99.90;;;;;;4992057;28;20800;-57
2021/12/11 11:07:12;;;;;;;7.93;5.90;;;9.00;99.90;;;;;;4988228;28;21073;-56
2021/12/11 11:09:40;;;;;;;8.70;6.00;;;9.20;99.90;;;;;;4997654;28;20486;-59
2021/12/11 11:12:12;;;;;;;18.57;7.80;;;12.00;99.90;;;;;;4995220;28;21457;-59
2021/12/11 11:14:40;;;;;;;24.37;13.80;;;12.30;99.90;;;;;;4995505;28;20447;-55
2021/12/11 11:17:12;;;;;;;20.13;11.60;;;12.80;99.90;;;;;;4994258;28;20465;-53
2021/12/11 11:19:41;;;;;;;8.67;6.00;;;12.30;99.90;;;;;;4994940;28;20480;-56
2021/12/11 11:22:10;;;;;;;46.13;15.87;;;12.80;97.50;;;;;;4994536;28;21415;-51
2021/12/11 11:24:39;;;;;;;63.63;24.60;;;;;;;;;;4994357;28;20449;-51
2021/12/11 11:27:09;;;;;;;32.10;16.33;;;12.80;99.90;;;;;;4995137;28;20461;-54
2021/12/11 11:29:39;;;;;;;34.70;15.40;;;13.50;97.50;;;;;;4990104;28;20654;-55
2021/12/11 11:32:11;;;;;;;50.63;21.57;;;10.50;99.50;;;;;;4991348;28;20446;-56
2021/12/11 11:34:40;;;;;;;40.37;17.97;;;11.50;99.90;;;;;;4995340;28;20453;-58
2021/12/11 11:37:09;;;;;;;33.80;15.40;;;12.70;98.90;;;;;;4998829;28;21365;-52
2021/12/11 11:39:37;;;;;;;53.70;21.17;;;13.00;98.20;;;;;;4993788;28;21094;-55
2021/12/11 11:42:08;;;;;;;6.33;5.43;;;13.70;97.20;;;;;;4990418;28;20481;-54
2021/12/11 11:44:40;;;;;;;13.90;8.10;;;10.20;96.40;;;;;;4997903;28;20454;-56
2021/12/11 11:47:08;;;;;;;12.17;7.00;;;9.60;99.80;;;;;;4994614;28;20450;-55
2021/12/11 11:49:37;;;;;;;7.57;6.77;;;8.40;99.90;;;;;;4986934;28;20948;-54
2021/12/11 11:52:08;;;;;;;7.73;6.37;;;8.30;99.90;;;;;;4985167;28;21031;-55
2021/12/11 11:54:37;;;;;;;7.77;6.07;;;9.10;99.90;;;;;;4992382;28;20458;-52
2021/12/11 11:57:11;;;;;;;6.43;5.63;;;9.80;99.90;;;;;;4998550;28;20481;-54
2021/12/11 11:59:39;;;;;;;5.83;5.27;;;9.40;99.90;;;;;;4991037;28;20474;-59
2021/12/11 12:02:10;;;;;;;7.03;6.27;;;8.60;99.90;;;;;;4985454;28;20492;-54
2021/12/11 12:04:41;;;;;;;12.90;9.43;;;8.00;99.90;;;;;;4988416;28;20461;-56
2021/12/11 12:07:10;;;;;;;6.13;5.50;;;8.40;99.90;;;;;;4995513;28;20455;-56
2021/12/11 12:09:41;;;;;;;8.67;5.83;;;8.00;99.90;;;;;;4993949;28;21192;-54
2021/12/11 12:12:10;;;;;;;5.93;5.40;;;8.20;99.90;;;;;;4985416;28;20942;-57
2021/12/11 12:14:40;;;;;;;15.33;8.80;;;8.70;99.90;;;;;;4983657;28;20451;-57
2021/12/11 12:17:13;;;;;;;6.67;6.07;;;8.50;99.90;;;;;;4980605;28;20457;-55
2021/12/11 12:19:42;;;;;;;6.80;6.13;;;8.80;99.90;;;;;;4985188;28;20473;-56
2021/12/11 12:22:12;;;;;;;6.03;5.30;;;8.50;99.90;;;;;;4986136;28;21296;-56
2021/12/11 12:24:41;;;;;;;15.63;9.10;;;9.20;99.90;;;;;;4986522;28;20895;-53
2021/12/11 12:27:11;;;;;;;7.23;6.00;;;9.90;99.90;;;;;;4987673;28;20442;-54
2021/12/11 12:29:44;;;;;;;21.87;8.97;;;9.10;99.90;;;;;;4982628;28;20481;-54
2021/12/11 12:32:13;;;;;;;8.37;7.37;;;9.40;99.90;;;;;;4985174;28;21005;-56
2021/12/11 12:34:42;;;;;;;9.20;6.93;;;9.50;99.90;;;;;;4993413;28;21376;-57
2021/12/11 12:37:10;;;;;;;8.60;6.90;;;9.00;99.90;;;;;;4995892;28;20453;-54
2021/12/11 12:39:41;;;;;;;6.10;5.50;;;8.30;99.90;;;;;;4987329;28;20489;-57
2021/12/11 12:42:26;;;;;;;11.47;7.00;;;9.30;99.90;;;;;;4987020;28;20490;-56
2021/12/11 12:44:59;;;;;;;5.93;5.43;;;9.60;99.90;;;;;;4986065;28;20451;-58
2021/12/11 12:47:30;;;;;;;12.60;8.13;;;9.80;99.50;;;;;;4987818;28;20999;-56
2021/12/11 12:50:02;;;;;;;6.23;5.73;;;10.90;98.70;;;;;;4988939;28;20511;-55
2021/12/11 12:52:33;;;;;;;11.37;7.07;;;9.30;98.60;;;;;;4980880;28;20612;-55
2021/12/11 12:55:02;;;;;;;5.90;5.40;;;9.40;99.90;;;;;;4982593;28;20455;-56
2021/12/11 12:57:33;;;;;;;7.50;5.97;;;9.20;99.70;;;;;;4987837;28;21008;-57
2021/12/11 13:00:09;;;;;;;13.03;7.57;;;9.30;99.90;;;;;;4985108;28;20475;-55
2021/12/11 13:02:40;;;;;;;5.33;4.93;;;9.70;99.90;;;;;;4984874;28;20534;-57
2021/12/11 13:05:16;;;;;;;8.23;6.60;;;10.00;97.50;;;;;;4988118;28;21040;-56
2021/12/11 13:07:47;;;;;;;5.33;4.70;;;10.20;99.90;;;;;;4988000;28;20517;-56
2021/12/11 13:10:20;;;;;;;12.47;6.93;;;9.80;98.70;;;;;;4986650;28;20768;-59
2021/12/11 13:12:50;;;;;;;5.43;4.93;;;10.80;99.90;;;;;;4985170;28;20745;-58
2021/12/11 13:15:24;;;;;;;6.10;5.50;;;10.40;96.10;;;;;;4986849;28;20855;-59
2021/12/11 13:17:53;;;;;;;7.27;5.50;;;11.60;96.10;;;;;;4986132;28;20926;-54